sensor_id;sensor_type;location;lat;lon;timestamp;P1;durP1;ratioP1;P2;durP2;ratioP2
63653;SDS011;49809;47.418;19.080;2022-10-15T00:02:05;23.83;;;11.80;;
63653;SDS011;49809;47.418;19.080;2022-10-15T00:06:14;21.83;;;11.27;;
63653;SDS011;49809;47.418;19.080;2022-10-15T00:10:10;24.30;;;13.15;;
63653;SDS011;49809;47.418;19.080;2022-10-15T00:13:45;23.23;;;11.55;;
63653;SDS011;49809;47.418;19.080;2022-10-15T00:17:22;28.45;;;11.68;;
63653;SDS011;49809;47.418;19.080;2022-10-15T00:21:06;28.17;;;12.32;;
63653;SDS011;49809;47.418;19.080;2022-10-15T00:24:35;21.87;;;11.48;;
63653;SDS011;49809;47.418;19.080;2022-10-15T00:28:23;24.77;;;11.77;;
63653;SDS011;49809;47.418;19.080;2022-10-15T00:31:52;23.95;;;11.43;;
63653;SDS011;49809;47.418;19.080;2022-10-15T00:40:11;19.98;;;10.57;;
63653;SDS011;49809;47.418;19.080;2022-10-15T00:52:03;22.33;;;10.98;;
63653;SDS011;49809;47.418;19.080;2022-10-15T00:55:56;20.75;;;10.80;;
63653;SDS011;49809;47.418;19.080;2022-10-15T00:59:43;23.15;;;11.12;;
63653;SDS011;49809;47.418;19.080;2022-10-15T01:03:40;20.65;;;11.38;;
63653;SDS011;49809;47.418;19.080;2022-10-15T01:07:17;19.27;;;10.48;;
63653;SDS011;49809;47.418;19.080;2022-10-15T01:28:05;21.37;;;10.48;;
63653;SDS011;49809;47.418;19.080;2022-10-15T01:40:16;18.17;;;10.23;;
63653;SDS011;49809;47.418;19.080;2022-10-15T01:43:52;20.48;;;10.30;;
63653;SDS011;49809;47.418;19.080;2022-10-15T01:47:58;20.50;;;10.10;;
63653;SDS011;49809;47.418;19.080;2022-10-15T01:51:40;17.50;;;9.35;;
63653;SDS011;49809;47.418;19.080;2022-10-15T01:55:23;20.23;;;9.18;;
63653;SDS011;49809;47.418;19.080;2022-10-15T01:59:11;18.52;;;9.25;;
63653;SDS011;49809;47.418;19.080;2022-10-15T02:06:34;20.92;;;10.48;;
63653;SDS011;49809;47.418;19.080;2022-10-15T02:11:02;19.00;;;10.18;;
63653;SDS011;49809;47.418;19.080;2022-10-15T02:14:59;20.88;;;9.98;;
63653;SDS011;49809;47.418;19.080;2022-10-15T02:22:58;21.62;;;9.60;;
63653;SDS011;49809;47.418;19.080;2022-10-15T02:27:11;18.85;;;9.93;;
63653;SDS011;49809;47.418;19.080;2022-10-15T02:31:05;18.77;;;9.23;;
63653;SDS011;49809;47.418;19.080;2022-10-15T02:34:53;24.27;;;9.88;;
63653;SDS011;49809;47.418;19.080;2022-10-15T02:38:19;17.70;;;9.40;;
63653;SDS011;49809;47.418;19.080;2022-10-15T02:46:06;19.80;;;9.90;;
63653;SDS011;49809;47.418;19.080;2022-10-15T02:57:32;17.80;;;9.82;;
63653;SDS011;49809;47.418;19.080;2022-10-15T03:01:20;20.73;;;9.80;;
63653;SDS011;49809;47.418;19.080;2022-10-15T03:08:45;19.17;;;9.15;;
63653;SDS011;49809;47.418;19.080;2022-10-15T03:20:14;21.33;;;9.82;;
63653;SDS011;49809;47.418;19.080;2022-10-15T03:39:35;19.55;;;9.73;;
63653;SDS011;49809;47.418;19.080;2022-10-15T03:55:06;23.92;;;9.48;;
63653;SDS011;49809;47.418;19.080;2022-10-15T03:58:44;19.58;;;10.35;;
63653;SDS011;49809;47.418;19.080;2022-10-15T04:02:29;20.55;;;10.45;;
63653;SDS011;49809;47.418;19.080;2022-10-15T04:06:13;21.30;;;10.32;;
63653;SDS011;49809;47.418;19.080;2022-10-15T04:09:37;17.90;;;10.23;;
63653;SDS011;49809;47.418;19.080;2022-10-15T04:13:48;21.55;;;9.82;;
63653;SDS011;49809;47.418;19.080;2022-10-15T04:17:58;21.70;;;9.75;;
63653;SDS011;49809;47.418;19.080;2022-10-15T04:26:01;16.92;;;8.07;;
63653;SDS011;49809;47.418;19.080;2022-10-15T04:29:45;19.45;;;9.57;;
63653;SDS011;49809;47.418;19.080;2022-10-15T04:44:42;21.05;;;9.55;;
63653;SDS011;49809;47.418;19.080;2022-10-15T04:48:18;15.02;;;8.85;;
63653;SDS011;49809;47.418;19.080;2022-10-15T04:51:55;19.02;;;9.10;;
63653;SDS011;49809;47.418;19.080;2022-10-15T05:02:50;17.23;;;9.77;;
63653;SDS011;49809;47.418;19.080;2022-10-15T05:06:23;20.50;;;9.60;;
63653;SDS011;49809;47.418;19.080;2022-10-15T05:10:10;16.62;;;7.78;;
63653;SDS011;49809;47.418;19.080;2022-10-15T05:13:36;20.95;;;9.05;;
63653;SDS011;49809;47.418;19.080;2022-10-15T05:20:59;17.10;;;9.15;;
63653;SDS011;49809;47.418;19.080;2022-10-15T05:29:31;16.55;;;8.25;;
63653;SDS011;49809;47.418;19.080;2022-10-15T05:52:01;17.92;;;9.35;;
63653;SDS011;49809;47.418;19.080;2022-10-15T06:29:21;28.27;;;11.88;;
63653;SDS011;49809;47.418;19.080;2022-10-15T06:32:55;19.10;;;10.95;;
63653;SDS011;49809;47.418;19.080;2022-10-15T06:36:24;21.12;;;10.70;;
63653;SDS011;49809;47.418;19.080;2022-10-15T06:43:37;20.52;;;10.00;;
63653;SDS011;49809;47.418;19.080;2022-10-15T06:47:13;18.98;;;10.00;;
63653;SDS011;49809;47.418;19.080;2022-10-15T06:50:47;19.62;;;9.88;;
63653;SDS011;49809;47.418;19.080;2022-10-15T06:54:23;18.87;;;9.07;;
63653;SDS011;49809;47.418;19.080;2022-10-15T06:57:56;19.42;;;9.93;;
63653;SDS011;49809;47.418;19.080;2022-10-15T07:01:35;16.42;;;9.32;;
63653;SDS011;49809;47.418;19.080;2022-10-15T07:05:07;16.20;;;8.90;;
63653;SDS011;49809;47.418;19.080;2022-10-15T07:08:43;15.75;;;8.63;;
63653;SDS011;49809;47.418;19.080;2022-10-15T07:12:04;17.50;;;8.57;;
63653;SDS011;49809;47.418;19.080;2022-10-15T07:15:41;20.37;;;9.32;;
63653;SDS011;49809;47.418;19.080;2022-10-15T07:19:24;15.48;;;9.02;;
63653;SDS011;49809;47.418;19.080;2022-10-15T07:23:20;16.75;;;9.43;;
63653;SDS011;49809;47.418;19.080;2022-10-15T07:26:48;16.83;;;8.90;;
63653;SDS011;49809;47.418;19.080;2022-10-15T07:30:27;19.62;;;9.10;;
63653;SDS011;49809;47.418;19.080;2022-10-15T07:34:01;19.02;;;9.75;;
63653;SDS011;49809;47.418;19.080;2022-10-15T07:37:35;14.43;;;7.45;;
63653;SDS011;49809;47.418;19.080;2022-10-15T07:41:10;21.48;;;8.98;;
63653;SDS011;49809;47.418;19.080;2022-10-15T07:44:45;15.57;;;7.53;;
63653;SDS011;49809;47.418;19.080;2022-10-15T07:47:51;15.60;;;8.43;;
63653;SDS011;49809;47.418;19.080;2022-10-15T07:51:09;13.05;;;7.72;;
63653;SDS011;49809;47.418;19.080;2022-10-15T07:54:18;12.80;;;7.12;;
63653;SDS011;49809;47.418;19.080;2022-10-15T07:57:57;12.30;;;6.97;;
63653;SDS011;49809;47.418;19.080;2022-10-15T08:01:37;12.07;;;6.18;;
63653;SDS011;49809;47.418;19.080;2022-10-15T08:05:05;14.07;;;7.22;;
63653;SDS011;49809;47.418;19.080;2022-10-15T08:09:12;12.95;;;6.47;;
63653;SDS011;49809;47.418;19.080;2022-10-15T08:13:03;12.60;;;7.43;;
63653;SDS011;49809;47.418;19.080;2022-10-15T08:16:47;14.80;;;6.68;;
63653;SDS011;49809;47.418;19.080;2022-10-15T08:20:25;11.45;;;6.53;;
63653;SDS011;49809;47.418;19.080;2022-10-15T08:23:48;12.65;;;6.10;;
63653;SDS011;49809;47.418;19.080;2022-10-15T08:27:24;11.12;;;6.62;;
63653;SDS011;49809;47.418;19.080;2022-10-15T08:31:08;11.30;;;6.25;;
63653;SDS011;49809;47.418;19.080;2022-10-15T08:34:56;10.70;;;5.85;;
63653;SDS011;49809;47.418;19.080;2022-10-15T08:38:29;12.55;;;6.53;;
63653;SDS011;49809;47.418;19.080;2022-10-15T08:41:52;10.73;;;5.85;;
63653;SDS011;49809;47.418;19.080;2022-10-15T08:53:20;12.23;;;6.45;;
63653;SDS011;49809;47.418;19.080;2022-10-15T08:56:44;8.20;;;5.20;;
63653;SDS011;49809;47.418;19.080;2022-10-15T09:00:30;13.45;;;7.20;;
63653;SDS011;49809;47.418;19.080;2022-10-15T09:07:35;9.07;;;5.20;;
63653;SDS011;49809;47.418;19.080;2022-10-15T09:14:36;9.48;;;5.45;;
63653;SDS011;49809;47.418;19.080;2022-10-15T09:18:35;9.98;;;5.82;;
63653;SDS011;49809;47.418;19.080;2022-10-15T09:22:14;13.30;;;5.70;;
63653;SDS011;49809;47.418;19.080;2022-10-15T09:25:24;11.15;;;6.78;;
63653;SDS011;49809;47.418;19.080;2022-10-15T09:32:03;9.30;;;5.90;;
63653;SDS011;49809;47.418;19.080;2022-10-15T09:35:23;9.55;;;5.45;;
63653;SDS011;49809;47.418;19.080;2022-10-15T09:45:47;7.40;;;4.87;;
63653;SDS011;49809;47.418;19.080;2022-10-15T09:49:15;14.25;;;5.93;;
63653;SDS011;49809;47.418;19.080;2022-10-15T09:53:14;8.60;;;5.43;;
63653;SDS011;49809;47.418;19.080;2022-10-15T09:56:59;6.75;;;4.10;;
63653;SDS011;49809;47.418;19.080;2022-10-15T10:04:19;7.28;;;4.35;;
63653;SDS011;49809;47.418;19.080;2022-10-15T10:07:30;8.07;;;4.75;;
63653;SDS011;49809;47.418;19.080;2022-10-15T10:10:40;8.02;;;4.53;;
63653;SDS011;49809;47.418;19.080;2022-10-15T10:14:09;5.15;;;3.70;;
63653;SDS011;49809;47.418;19.080;2022-10-15T10:17:30;6.53;;;4.12;;
63653;SDS011;49809;47.418;19.080;2022-10-15T10:20:33;10.10;;;3.67;;
63653;SDS011;49809;47.418;19.080;2022-10-15T10:23:38;7.25;;;4.05;;
63653;SDS011;49809;47.418;19.080;2022-10-15T10:26:44;9.95;;;4.20;;
63653;SDS011;49809;47.418;19.080;2022-10-15T10:29:52;6.35;;;3.58;;
63653;SDS011;49809;47.418;19.080;2022-10-15T10:33:00;14.23;;;4.65;;
63653;SDS011;49809;47.418;19.080;2022-10-15T10:36:06;7.50;;;4.20;;
63653;SDS011;49809;47.418;19.080;2022-10-15T10:39:32;9.00;;;4.00;;
63653;SDS011;49809;47.418;19.080;2022-10-15T10:42:38;6.45;;;3.65;;
63653;SDS011;49809;47.418;19.080;2022-10-15T10:46:01;7.72;;;3.40;;
63653;SDS011;49809;47.418;19.080;2022-10-15T10:49:37;6.30;;;3.90;;
63653;SDS011;49809;47.418;19.080;2022-10-15T10:52:46;5.60;;;3.40;;
63653;SDS011;49809;47.418;19.080;2022-10-15T10:59:43;5.75;;;3.30;;
63653;SDS011;49809;47.418;19.080;2022-10-15T11:03:01;5.53;;;3.37;;
63653;SDS011;49809;47.418;19.080;2022-10-15T11:06:34;5.10;;;3.58;;
63653;SDS011;49809;47.418;19.080;2022-10-15T11:31:18;4.87;;;3.10;;
63653;SDS011;49809;47.418;19.080;2022-10-15T11:35:22;5.15;;;3.20;;
63653;SDS011;49809;47.418;19.080;2022-10-15T11:42:52;4.05;;;2.92;;
63653;SDS011;49809;47.418;19.080;2022-10-15T11:49:34;4.62;;;3.05;;
63653;SDS011;49809;47.418;19.080;2022-10-15T11:56:27;6.30;;;3.03;;
63653;SDS011;49809;47.418;19.080;2022-10-15T12:02:51;6.55;;;3.20;;
63653;SDS011;49809;47.418;19.080;2022-10-15T12:06:12;4.00;;;3.28;;
63653;SDS011;49809;47.418;19.080;2022-10-15T12:09:39;7.45;;;3.10;;
63653;SDS011;49809;47.418;19.080;2022-10-15T12:20:30;5.43;;;2.97;;
63653;SDS011;49809;47.418;19.080;2022-10-15T12:28:13;4.85;;;3.08;;
63653;SDS011;49809;47.418;19.080;2022-10-15T12:35:24;5.87;;;3.67;;
63653;SDS011;49809;47.418;19.080;2022-10-15T12:39:23;5.60;;;3.03;;
63653;SDS011;49809;47.418;19.080;2022-10-15T12:43:13;5.28;;;3.00;;
63653;SDS011;49809;47.418;19.080;2022-10-15T12:46:42;4.60;;;3.10;;
63653;SDS011;49809;47.418;19.080;2022-10-15T12:49:56;5.80;;;2.85;;
63653;SDS011;49809;47.418;19.080;2022-10-15T12:56:35;6.43;;;2.80;;
63653;SDS011;49809;47.418;19.080;2022-10-15T13:07:01;3.78;;;2.87;;
63653;SDS011;49809;47.418;19.080;2022-10-15T13:10:46;4.53;;;3.10;;
63653;SDS011;49809;47.418;19.080;2022-10-15T13:14:38;5.10;;;2.75;;
63653;SDS011;49809;47.418;19.080;2022-10-15T13:22:42;4.95;;;3.00;;
63653;SDS011;49809;47.418;19.080;2022-10-15T13:30:13;5.07;;;2.70;;
63653;SDS011;49809;47.418;19.080;2022-10-15T13:33:42;3.60;;;2.60;;
63653;SDS011;49809;47.418;19.080;2022-10-15T13:37:12;6.32;;;2.97;;
63653;SDS011;49809;47.418;19.080;2022-10-15T13:40:22;3.97;;;2.95;;
63653;SDS011;49809;47.418;19.080;2022-10-15T13:43:27;5.22;;;2.87;;
63653;SDS011;49809;47.418;19.080;2022-10-15T13:46:57;4.05;;;2.62;;
63653;SDS011;49809;47.418;19.080;2022-10-15T13:50:45;6.30;;;3.60;;
63653;SDS011;49809;47.418;19.080;2022-10-15T13:53:49;7.50;;;4.32;;
63653;SDS011;49809;47.418;19.080;2022-10-15T13:57:32;4.35;;;3.00;;
63653;SDS011;49809;47.418;19.080;2022-10-15T14:00:35;7.25;;;3.25;;
63653;SDS011;49809;47.418;19.080;2022-10-15T14:03:49;7.00;;;3.00;;
63653;SDS011;49809;47.418;19.080;2022-10-15T14:07:22;4.15;;;2.83;;
63653;SDS011;49809;47.418;19.080;2022-10-15T14:10:50;5.28;;;3.75;;
63653;SDS011;49809;47.418;19.080;2022-10-15T14:13:57;9.40;;;3.60;;
63653;SDS011;49809;47.418;19.080;2022-10-15T14:17:05;3.62;;;2.65;;
63653;SDS011;49809;47.418;19.080;2022-10-15T14:20:12;9.47;;;2.97;;
63653;SDS011;49809;47.418;19.080;2022-10-15T14:23:32;5.57;;;3.10;;
63653;SDS011;49809;47.418;19.080;2022-10-15T14:26:38;4.80;;;2.87;;
63653;SDS011;49809;47.418;19.080;2022-10-15T14:29:41;5.70;;;3.65;;
63653;SDS011;49809;47.418;19.080;2022-10-15T14:32:50;9.10;;;4.05;;
63653;SDS011;49809;47.418;19.080;2022-10-15T14:39:42;10.18;;;3.40;;
63653;SDS011;49809;47.418;19.080;2022-10-15T14:43:06;6.70;;;3.90;;
63653;SDS011;49809;47.418;19.080;2022-10-15T14:46:17;6.07;;;3.47;;
63653;SDS011;49809;47.418;19.080;2022-10-15T14:49:29;4.53;;;3.22;;
63653;SDS011;49809;47.418;19.080;2022-10-15T14:52:54;5.07;;;3.10;;
63653;SDS011;49809;47.418;19.080;2022-10-15T14:56:00;5.00;;;2.90;;
63653;SDS011;49809;47.418;19.080;2022-10-15T14:59:12;6.43;;;2.83;;
63653;SDS011;49809;47.418;19.080;2022-10-15T15:02:19;7.05;;;4.07;;
63653;SDS011;49809;47.418;19.080;2022-10-15T15:05:28;5.95;;;3.03;;
63653;SDS011;49809;47.418;19.080;2022-10-15T15:08:44;4.20;;;3.05;;
63653;SDS011;49809;47.418;19.080;2022-10-15T15:11:54;6.50;;;3.30;;
63653;SDS011;49809;47.418;19.080;2022-10-15T15:14:57;5.32;;;3.22;;
63653;SDS011;49809;47.418;19.080;2022-10-15T15:18:01;7.00;;;3.90;;
63653;SDS011;49809;47.418;19.080;2022-10-15T15:21:04;8.75;;;3.90;;
63653;SDS011;49809;47.418;19.080;2022-10-15T15:24:10;6.85;;;3.90;;
63653;SDS011;49809;47.418;19.080;2022-10-15T15:28:16;10.00;;;4.95;;
63653;SDS011;49809;47.418;19.080;2022-10-15T15:31:25;12.20;;;5.95;;
63653;SDS011;49809;47.418;19.080;2022-10-15T15:34:54;9.02;;;4.78;;
63653;SDS011;49809;47.418;19.080;2022-10-15T15:38:44;8.85;;;4.80;;
63653;SDS011;49809;47.418;19.080;2022-10-15T15:42:16;6.62;;;4.05;;
63653;SDS011;49809;47.418;19.080;2022-10-15T15:45:36;6.25;;;3.85;;
63653;SDS011;49809;47.418;19.080;2022-10-15T15:49:15;9.07;;;4.57;;
63653;SDS011;49809;47.418;19.080;2022-10-15T15:52:53;6.25;;;3.40;;
63653;SDS011;49809;47.418;19.080;2022-10-15T16:03:42;20.10;;;7.72;;
63653;SDS011;49809;47.418;19.080;2022-10-15T16:07:18;25.55;;;10.07;;
63653;SDS011;49809;47.418;19.080;2022-10-15T16:10:53;46.33;;;17.15;;
63653;SDS011;49809;47.418;19.080;2022-10-15T16:14:29;51.58;;;15.88;;
63653;SDS011;49809;47.418;19.080;2022-10-15T16:18:04;29.12;;;12.27;;
63653;SDS011;49809;47.418;19.080;2022-10-15T16:21:11;13.13;;;6.40;;
63653;SDS011;49809;47.418;19.080;2022-10-15T16:24:38;20.20;;;10.73;;
63653;SDS011;49809;47.418;19.080;2022-10-15T16:28:09;17.33;;;8.95;;
63653;SDS011;49809;47.418;19.080;2022-10-15T16:34:18;10.77;;;5.70;;
63653;SDS011;49809;47.418;19.080;2022-10-15T16:37:29;10.40;;;4.55;;
63653;SDS011;49809;47.418;19.080;2022-10-15T16:41:16;7.35;;;4.05;;
63653;SDS011;49809;47.418;19.080;2022-10-15T16:44:42;8.20;;;4.60;;
63653;SDS011;49809;47.418;19.080;2022-10-15T16:47:46;9.38;;;4.60;;
63653;SDS011;49809;47.418;19.080;2022-10-15T16:51:12;10.45;;;5.72;;
63653;SDS011;49809;47.418;19.080;2022-10-15T16:54:20;9.63;;;5.07;;
63653;SDS011;49809;47.418;19.080;2022-10-15T16:57:23;7.97;;;5.03;;
63653;SDS011;49809;47.418;19.080;2022-10-15T17:00:46;7.10;;;4.65;;
63653;SDS011;49809;47.418;19.080;2022-10-15T17:04:01;9.63;;;5.65;;
63653;SDS011;49809;47.418;19.080;2022-10-15T17:07:08;12.80;;;6.00;;
63653;SDS011;49809;47.418;19.080;2022-10-15T17:10:11;10.02;;;5.75;;
63653;SDS011;49809;47.418;19.080;2022-10-15T17:13:16;10.40;;;5.32;;
63653;SDS011;49809;47.418;19.080;2022-10-15T17:19:31;10.30;;;7.55;;
63653;SDS011;49809;47.418;19.080;2022-10-15T17:22:37;13.38;;;7.97;;
63653;SDS011;49809;47.418;19.080;2022-10-15T17:25:40;11.80;;;7.05;;
63653;SDS011;49809;47.418;19.080;2022-10-15T17:29:05;9.68;;;6.22;;
63653;SDS011;49809;47.418;19.080;2022-10-15T17:32:14;11.65;;;5.80;;
63653;SDS011;49809;47.418;19.080;2022-10-15T17:35:16;9.68;;;5.10;;
63653;SDS011;49809;47.418;19.080;2022-10-15T17:38:59;11.12;;;5.75;;
63653;SDS011;49809;47.418;19.080;2022-10-15T17:42:25;9.38;;;5.10;;
63653;SDS011;49809;47.418;19.080;2022-10-15T17:45:29;12.23;;;5.47;;
63653;SDS011;49809;47.418;19.080;2022-10-15T17:48:35;11.10;;;5.30;;
63653;SDS011;49809;47.418;19.080;2022-10-15T17:51:43;9.93;;;5.25;;
63653;SDS011;49809;47.418;19.080;2022-10-15T17:55:08;11.00;;;5.10;;
63653;SDS011;49809;47.418;19.080;2022-10-15T17:59:02;9.07;;;5.12;;
63653;SDS011;49809;47.418;19.080;2022-10-15T18:02:29;10.02;;;5.20;;
63653;SDS011;49809;47.418;19.080;2022-10-15T18:05:36;13.15;;;5.03;;
63653;SDS011;49809;47.418;19.080;2022-10-15T18:08:59;13.65;;;5.57;;
63653;SDS011;49809;47.418;19.080;2022-10-15T18:12:06;9.93;;;5.07;;
63653;SDS011;49809;47.418;19.080;2022-10-15T18:15:13;9.77;;;5.40;;
63653;SDS011;49809;47.418;19.080;2022-10-15T18:18:37;11.82;;;6.05;;
63653;SDS011;49809;47.418;19.080;2022-10-15T18:22:23;7.90;;;4.95;;
63653;SDS011;49809;47.418;19.080;2022-10-15T18:25:47;10.40;;;5.15;;
63653;SDS011;49809;47.418;19.080;2022-10-15T18:29:05;9.88;;;4.90;;
63653;SDS011;49809;47.418;19.080;2022-10-15T18:32:50;11.27;;;5.35;;
63653;SDS011;49809;47.418;19.080;2022-10-15T18:36:19;12.60;;;6.25;;
63653;SDS011;49809;47.418;19.080;2022-10-15T18:44:16;14.18;;;7.25;;
63653;SDS011;49809;47.418;19.080;2022-10-15T18:47:26;12.60;;;7.15;;
63653;SDS011;49809;47.418;19.080;2022-10-15T18:50:41;14.40;;;6.53;;
63653;SDS011;49809;47.418;19.080;2022-10-15T18:54:07;11.70;;;6.35;;
63653;SDS011;49809;47.418;19.080;2022-10-15T18:57:35;13.75;;;6.60;;
63653;SDS011;49809;47.418;19.080;2022-10-15T19:01:27;14.27;;;7.78;;
63653;SDS011;49809;47.418;19.080;2022-10-15T19:05:20;11.50;;;6.87;;
63653;SDS011;49809;47.418;19.080;2022-10-15T19:09:03;14.75;;;8.38;;
63653;SDS011;49809;47.418;19.080;2022-10-15T19:17:21;13.10;;;7.85;;
63653;SDS011;49809;47.418;19.080;2022-10-15T19:29:36;13.60;;;8.13;;
63653;SDS011;49809;47.418;19.080;2022-10-15T19:37:12;12.43;;;7.62;;
63653;SDS011;49809;47.418;19.080;2022-10-15T19:41:16;11.98;;;7.78;;
63653;SDS011;49809;47.418;19.080;2022-10-15T19:44:52;14.98;;;7.68;;
63653;SDS011;49809;47.418;19.080;2022-10-15T19:55:58;15.50;;;7.78;;
63653;SDS011;49809;47.418;19.080;2022-10-15T20:00:04;14.20;;;8.02;;
63653;SDS011;49809;47.418;19.080;2022-10-15T20:03:13;15.82;;;8.10;;
63653;SDS011;49809;47.418;19.080;2022-10-15T20:06:43;15.75;;;7.62;;
63653;SDS011;49809;47.418;19.080;2022-10-15T20:10:23;15.15;;;7.62;;
63653;SDS011;49809;47.418;19.080;2022-10-15T20:18:45;12.50;;;7.93;;
63653;SDS011;49809;47.418;19.080;2022-10-15T20:26:48;15.88;;;8.38;;
63653;SDS011;49809;47.418;19.080;2022-10-15T20:30:51;12.82;;;7.87;;
63653;SDS011;49809;47.418;19.080;2022-10-15T20:34:50;12.35;;;7.78;;
63653;SDS011;49809;47.418;19.080;2022-10-15T20:37:56;14.05;;;7.65;;
63653;SDS011;49809;47.418;19.080;2022-10-15T20:41:21;16.62;;;7.97;;
63653;SDS011;49809;47.418;19.080;2022-10-15T20:49:18;13.95;;;7.03;;
63653;SDS011;49809;47.418;19.080;2022-10-15T21:01:08;12.23;;;7.20;;
63653;SDS011;49809;47.418;19.080;2022-10-15T21:30:16;11.02;;;6.32;;
63653;SDS011;49809;47.418;19.080;2022-10-15T21:34:21;13.68;;;6.65;;
63653;SDS011;49809;47.418;19.080;2022-10-15T21:42:37;9.15;;;5.55;;
63653;SDS011;49809;47.418;19.080;2022-10-15T21:46:04;9.20;;;5.75;;
63653;SDS011;49809;47.418;19.080;2022-10-15T21:50:12;10.38;;;5.43;;
63653;SDS011;49809;47.418;19.080;2022-10-15T21:53:58;11.23;;;5.55;;
63653;SDS011;49809;47.418;19.080;2022-10-15T21:57:43;9.90;;;5.43;;
63653;SDS011;49809;47.418;19.080;2022-10-15T22:01:34;9.55;;;6.15;;
63653;SDS011;49809;47.418;19.080;2022-10-15T22:05:19;9.50;;;5.22;;
63653;SDS011;49809;47.418;19.080;2022-10-15T22:09:04;10.93;;;5.80;;
63653;SDS011;49809;47.418;19.080;2022-10-15T22:12:34;8.85;;;5.35;;
63653;SDS011;49809;47.418;19.080;2022-10-15T22:16:26;12.27;;;5.35;;
63653;SDS011;49809;47.418;19.080;2022-10-15T22:20:25;7.80;;;5.10;;
63653;SDS011;49809;47.418;19.080;2022-10-15T22:23:52;7.35;;;4.80;;
63653;SDS011;49809;47.418;19.080;2022-10-15T22:27:22;10.35;;;5.37;;
63653;SDS011;49809;47.418;19.080;2022-10-15T22:31:09;11.38;;;5.28;;
63653;SDS011;49809;47.418;19.080;2022-10-15T22:43:02;8.18;;;4.70;;
63653;SDS011;49809;47.418;19.080;2022-10-15T22:46:33;10.25;;;4.60;;
63653;SDS011;49809;47.418;19.080;2022-10-15T22:50:18;7.37;;;4.03;;
63653;SDS011;49809;47.418;19.080;2022-10-15T23:02:10;5.45;;;3.53;;
63653;SDS011;49809;47.418;19.080;2022-10-15T23:05:58;5.15;;;3.58;;
63653;SDS011;49809;47.418;19.080;2022-10-15T23:14:35;5.55;;;3.22;;
63653;SDS011;49809;47.418;19.080;2022-10-15T23:21:43;7.07;;;3.60;;
63653;SDS011;49809;47.418;19.080;2022-10-15T23:25:17;6.82;;;3.65;;
63653;SDS011;49809;47.418;19.080;2022-10-15T23:28:51;4.93;;;3.10;;
63653;SDS011;49809;47.418;19.080;2022-10-15T23:32:39;7.15;;;3.72;;
63653;SDS011;49809;47.418;19.080;2022-10-15T23:36:48;5.15;;;3.37;;
63653;SDS011;49809;47.418;19.080;2022-10-15T23:40:15;6.57;;;3.80;;
63653;SDS011;49809;47.418;19.080;2022-10-15T23:52:17;4.97;;;3.55;;
63653;SDS011;49809;47.418;19.080;2022-10-15T23:56:11;6.12;;;3.62;;
